Pagina principale
METAR-TAF:

METAR-TAF

Aeroporti :

Aeroporto di Mosca-Šeremet'evo

Mosca-Šeremet'evo, Russia

latitudine: 55-58N, longitudine: 037-25E, altezza: 190 m

Osservazione

Il bollettino è stato emesso 31 minuti fa, alle 14:30 UTC
Vento 14 kt da est/nord-est
Temperature 20°C
Umidità 35%
Pressione 1027 hPa
Visibilità 10 km o più
nessuna nube inferiore a 1500 m e nessun cumulonembo

METAR: UUEE 211430Z 06007MPS CAVOK 20/04 Q1027 R06C/150062 R06R/150062 NOSIG

Ora: 18:01 (15:01 UTC)

Previsione

Il bollettino è stato emesso 1 ora e 1 minuti fa, alle 14:00 UTC
Previsione valida dal 21 alle 15 UTC al 22 alle 15 UTC
Vento 12 kt da est
Visibilità 10 km o più
nessuna nube inferiore a 1500 m e nessun cumulonembo
Evoluzione graduale
dal 22 alle 00 UTC al 22 alle 04 UTC
Vento 10 kt da sud-est

TAF: UUEE 211400Z 2115/2215 08006MPS CAVOK TX23/2212Z TN08/2203Z BECMG 2200/2204 13005MPS

Osservazioni e previsioni meteorologiche di più di 4000 aeroporti (messaggi METAR e TAF).

Le stazioni disponibili sono rappresentate dai dischi gialli e rossi sulla carta.

Puntare il mouse per vedere il nome della stazione.

Clicca sopra per visualizzare le osservazioni e previsioni meteorologiche.

Per cambiare la mappa : fare clic sui pulsanti verdi con una croce nera per ingrandire, il pulsante verde con un trattino per diminuire, o sulla freccia verde per le mappe adiacenti.


METAR-TAF: